Islandská krása na dosah. Dopravce Icelandair nabídne z Prahy přímé lety do Keflavíku

09.11.22 Nejseverněji položená metropole na světě, město památek a tajemných koutů. Reykjavík je vstupní bránou do nádherné islandské krajiny plné vodopádů, vodních gejzírů, jezírek s teplou i horkou vodou obklopené sněhem, ledovcových plání, kamenité pouště a doutnajících sopek. Celý článek

Eurowings slaví první výročí své základny v Praze

03.11.22 Německá letecká společnost Eurowings slaví první rok své základny na pražském letišti, během kterého přepravila bezmála půl milionu cestujících. V rámci letního letového řádu létala společnost do 19 pravidelných destinací, v současném zimním letovém řádu pak Eurowings operuje do 12 destinací. Celý článek

Zprávy

aktualizováno

05.12.22 Celý článek

Všechny zprávy    

Všechny články

Zeptejte se odborníka

Zkušený personál jedné z největších leteckých škol Flying Academy je připraven Vám pomoci s jakýmikoli otázkami týkajícími se letectví.

Zeptejte se

Newsletter

Přihlaste se k odběru novinek.

Aktuální počasí

LKKB
LKKB 052100Z 21001KT 9999 SCT010 OVC027 04/03 Q1018

LKKV
LKKV 052100Z 26004KT 8000 BKN002 01/00 Q1017

LKMT
LKMT 052100Z 00000KT 1200 R22/P2000N R04/1800D BR OVC003 05/04 Q1018 TEMPO 0700 FG

LKPR
LKPR 052100Z 26005KT 9999 OVC020 04/02 Q1017 TEMPO BKN015

LKTB
LKTB 052100Z 05001KT 1200 R27/1900U DZ BR BKN003 OVC005 04/04 Q1018 NOSIG

Briefing

Kurzy měn

AUD AUD 15.58 Kč
EUR EUR 24.35 Kč
GBP GBP 28.11 Kč
HUF HUF 5.96 Kč
CHF CHF 24.66 Kč
USD USD 23.28 Kč